Time;durP1;ratioP1;P1;durP2;ratioP2;P2;SDS_P1;SDS_P2;PMS_P1;PMS_P2;Temp;Humidity;BMP_temperature;BMP_pressure;BME280_temperature;BME280_humidity;BME280_pressure;Samples;Min_cycle;Max_cycle;Signal;HPM_P1;HPM_P2
2021/05/17 00:00:13;;;;;;;9.32;6.10;;;9.50;99.90;;;;;;2047749;29;20032;-69
2021/05/17 00:01:14;;;;;;;12.02;5.95;;;9.40;99.90;;;;;;2056238;28;20023;-69
2021/05/17 00:02:16;;;;;;;10.10;5.80;;;9.50;99.90;;;;;;2047767;28;20031;-67
2021/05/17 00:03:18;;;;;;;12.70;7.50;;;9.40;99.90;;;;;;2049140;29;20020;-68
2021/05/17 00:04:29;;;;;;;13.48;7.90;;;9.50;99.90;;;;;;2049708;28;20033;-68
2021/05/17 00:05:30;;;;;;;13.85;8.23;;;9.40;99.90;;;;;;2058055;28;20030;-68
2021/05/17 00:06:32;;;;;;;13.23;8.52;;;9.40;99.90;;;;;;2048908;29;20028;-68
2021/05/17 00:07:32;;;;;;;12.70;7.90;;;9.40;99.90;;;;;;2049525;28;20734;-69
2021/05/17 00:08:33;;;;;;;12.27;7.68;;;9.40;99.90;;;;;;2057998;28;20042;-68
2021/05/17 00:09:34;;;;;;;11.65;7.15;;;9.40;99.90;;;;;;2058132;28;20106;-68
2021/05/17 00:10:35;;;;;;;10.95;6.72;;;9.40;99.90;;;;;;2049442;29;20391;-67
2021/05/17 00:11:36;;;;;;;8.85;6.30;;;9.40;99.90;;;;;;2041738;29;20380;-67
2021/05/17 00:12:37;;;;;;;8.95;6.30;;;9.40;99.90;;;;;;2049450;29;20139;-69
2021/05/17 00:13:38;;;;;;;10.35;6.40;;;9.40;99.90;;;;;;2049557;29;20031;-69
2021/05/17 00:14:40;;;;;;;9.32;6.43;;;9.40;99.90;;;;;;2049619;28;20054;-71
2021/05/17 00:15:41;;;;;;;10.23;7.00;;;9.40;99.90;;;;;;2041309;29;20027;-68
2021/05/17 00:16:42;;;;;;;10.30;7.45;;;9.40;99.90;;;;;;2040736;29;20063;-68
2021/05/17 00:17:43;;;;;;;12.38;8.30;;;9.40;99.90;;;;;;2057867;28;20106;-69
2021/05/17 00:18:44;;;;;;;14.35;8.25;;;9.40;99.90;;;;;;2049314;29;20035;-67
2021/05/17 00:19:45;;;;;;;14.65;8.02;;;9.40;99.90;;;;;;2049348;29;20019;-68
2021/05/17 00:20:46;;;;;;;12.23;7.80;;;9.40;99.90;;;;;;2057785;28;20043;-67
2021/05/17 00:21:47;;;;;;;11.05;7.00;;;9.30;99.90;;;;;;2057727;28;20035;-71
2021/05/17 00:22:48;;;;;;;12.77;7.78;;;9.40;99.90;;;;;;2057731;28;20034;-68
2021/05/17 00:23:49;;;;;;;11.38;7.35;;;9.40;99.90;;;;;;2058038;28;20089;-71
2021/05/17 00:24:49;;;;;;;9.80;6.85;;;9.30;99.90;;;;;;2049237;29;20114;-68
2021/05/17 00:25:50;;;;;;;12.20;7.57;;;9.40;99.90;;;;;;2049157;29;20063;-69
2021/05/17 00:26:51;;;;;;;11.40;7.30;;;9.30;99.90;;;;;;2057181;28;20034;-69
2021/05/17 00:27:54;;;;;;;9.63;6.20;;;9.30;99.90;;;;;;2057559;28;20039;-69
2021/05/17 00:28:55;;;;;;;10.07;6.60;;;9.40;99.90;;;;;;2057693;28;20035;-68
2021/05/17 00:29:56;;;;;;;11.88;7.30;;;9.30;99.90;;;;;;2057609;28;20030;-69
2021/05/17 00:30:57;;;;;;;17.27;8.30;;;9.30;99.90;;;;;;2048922;29;20523;-69
2021/05/17 00:31:59;;;;;;;11.23;7.13;;;9.30;99.90;;;;;;2048796;29;20456;-69
2021/05/17 00:33:01;;;;;;;14.25;8.13;;;9.30;99.90;;;;;;2057486;28;20027;-68
2021/05/17 00:34:03;;;;;;;11.45;6.97;;;9.30;99.90;;;;;;2057407;28;20023;-68
2021/05/17 00:35:04;;;;;;;11.05;6.38;;;9.30;99.90;;;;;;2057413;28;20134;-69
2021/05/17 00:36:06;;;;;;;9.20;5.90;;;9.30;99.90;;;;;;2056866;28;20542;-68
2021/05/17 00:37:06;;;;;;;8.75;5.85;;;9.20;99.90;;;;;;2048737;28;20043;-69
2021/05/17 00:38:07;;;;;;;7.25;5.22;;;9.20;99.90;;;;;;2048650;29;20019;-68
2021/05/17 00:39:10;;;;;;;8.93;5.30;;;9.20;99.90;;;;;;2048679;29;20042;-69
2021/05/17 00:40:12;;;;;;;8.60;5.38;;;9.20;99.90;;;;;;2057375;28;20023;-69
2021/05/17 00:41:13;;;;;;;12.88;5.40;;;9.20;99.90;;;;;;2057481;28;20053;-68
2021/05/17 00:42:15;;;;;;;8.73;5.18;;;9.20;99.90;;;;;;2048800;29;20039;-69
2021/05/17 00:43:24;;;;;;;8.38;5.18;;;9.20;99.90;;;;;;2056709;28;20118;-67
2021/05/17 00:44:27;;;;;;;9.20;5.82;;;9.20;99.90;;;;;;2063707;28;20046;-70
2021/05/17 00:45:28;;;;;;;10.57;5.93;;;9.20;99.90;;;;;;2057387;28;20027;-69
2021/05/17 00:46:30;;;;;;;10.60;6.05;;;9.20;99.90;;;;;;2040261;29;20051;-70
2021/05/17 00:47:36;;;;;;;9.68;5.68;;;9.20;99.90;;;;;;2049081;28;20078;-69
2021/05/17 00:48:38;;;;;;;11.35;7.00;;;9.20;99.90;;;;;;2064161;28;20024;-69
2021/05/17 00:49:40;;;;;;;11.30;6.55;;;9.20;99.90;;;;;;2048773;29;20034;-69
2021/05/17 00:50:41;;;;;;;9.95;5.80;;;9.20;99.90;;;;;;2048909;28;20580;-69
2021/05/17 00:51:43;;;;;;;8.75;5.75;;;9.20;99.90;;;;;;2057335;28;20031;-69
2021/05/17 00:52:45;;;;;;;7.70;4.80;;;9.20;99.90;;;;;;2057281;28;20026;-68
2021/05/17 00:53:46;;;;;;;7.13;4.50;;;9.20;99.90;;;;;;2048468;29;20035;-67
2021/05/17 00:54:47;;;;;;;8.15;4.90;;;9.20;99.90;;;;;;2048762;28;20102;-68
2021/05/17 00:55:51;;;;;;;7.47;4.60;;;9.20;99.90;;;;;;2048384;29;20027;-69
2021/05/17 00:56:52;;;;;;;8.35;4.80;;;9.20;99.90;;;;;;2048391;29;20023;-69
2021/05/17 00:57:53;;;;;;;14.65;6.72;;;9.20;99.90;;;;;;2048031;29;20034;-69
2021/05/17 00:58:55;;;;;;;30.67;12.50;;;9.20;99.90;;;;;;2048466;28;20027;-69
2021/05/17 00:59:56;;;;;;;36.42;14.93;;;9.20;99.90;;;;;;2057308;28;20066;-69
2021/05/17 01:00:57;;;;;;;37.88;16.25;;;9.30;99.90;;;;;;2048738;29;20031;-69
2021/05/17 01:01:57;;;;;;;35.75;15.20;;;9.30;99.90;;;;;;2056770;28;20138;-70
2021/05/17 01:03:14;;;;;;;28.23;12.55;;;9.30;99.90;;;;;;2054893;28;20141;-68
2021/05/17 01:04:41;;;;;;;25.92;10.85;;;9.30;99.90;;;;;;2046787;28;20050;-69
2021/05/17 01:05:42;;;;;;;21.60;8.57;;;9.30;99.90;;;;;;2057734;28;20031;-69
2021/05/17 01:06:46;;;;;;;14.45;6.80;;;9.30;99.90;;;;;;2056704;28;20043;-69
2021/05/17 01:07:49;;;;;;;13.52;6.50;;;9.30;99.90;;;;;;2057201;28;20027;-69
2021/05/17 01:09:03;;;;;;;10.18;5.70;;;9.30;99.90;;;;;;2057056;28;20037;-67
2021/05/17 01:10:06;;;;;;;7.88;4.97;;;9.30;99.90;;;;;;2048451;29;20035;-67
2021/05/17 01:11:07;;;;;;;8.50;4.90;;;9.30;99.90;;;;;;2048876;28;20028;-68
2021/05/17 01:12:09;;;;;;;6.40;4.40;;;9.40;99.90;;;;;;2048575;29;20071;-68
2021/05/17 01:13:10;;;;;;;7.30;4.30;;;9.40;99.90;;;;;;2048676;28;20439;-67
2021/05/17 01:14:13;;;;;;;6.57;4.47;;;9.40;99.90;;;;;;2047985;28;20030;-68
2021/05/17 01:15:18;;;;;;;5.50;4.05;;;9.30;99.90;;;;;;2048951;28;20435;-68
2021/05/17 01:16:19;;;;;;;4.82;3.67;;;9.30;99.90;;;;;;2056729;28;20494;-68
2021/05/17 01:17:20;;;;;;;5.28;3.97;;;9.40;99.90;;;;;;2057043;28;20395;-67
2021/05/17 01:18:23;;;;;;;7.05;5.50;;;9.40;99.90;;;;;;2056979;28;20053;-68
2021/05/17 01:19:33;;;;;;;6.85;5.18;;;9.40;99.90;;;;;;2048414;29;20503;-67
2021/05/17 01:20:34;;;;;;;6.30;4.22;;;9.40;99.90;;;;;;2049858;28;20037;-68
2021/05/17 01:21:38;;;;;;;5.82;4.28;;;9.40;99.90;;;;;;2057197;28;20402;-68
2021/05/17 01:22:51;;;;;;;4.75;3.83;;;9.40;99.90;;;;;;2057076;28;20046;-69
2021/05/17 01:23:56;;;;;;;4.72;3.70;;;9.50;99.90;;;;;;2057001;28;20097;-69
2021/05/17 01:24:58;;;;;;;5.18;3.80;;;9.50;99.90;;;;;;2057070;28;20039;-69
2021/05/17 01:26:01;;;;;;;5.38;3.83;;;9.50;99.90;;;;;;2047962;29;20067;-67
2021/05/17 01:27:03;;;;;;;6.57;4.35;;;9.50;99.90;;;;;;2048830;28;20171;-68
2021/05/17 01:28:07;;;;;;;8.88;5.43;;;9.60;99.90;;;;;;2048459;29;20031;-69
2021/05/17 01:29:08;;;;;;;8.43;5.13;;;9.60;99.90;;;;;;2048806;28;20102;-69
2021/05/17 01:30:14;;;;;;;7.82;5.03;;;9.60;99.90;;;;;;2056964;28;20034;-69
2021/05/17 01:31:15;;;;;;;11.98;6.53;;;9.60;99.90;;;;;;2057121;28;20027;-69
2021/05/17 01:32:16;;;;;;;11.57;6.80;;;9.60;99.90;;;;;;2057103;28;20069;-67
2021/05/17 01:33:17;;;;;;;12.45;6.70;;;9.70;99.90;;;;;;2057093;28;20073;-67
2021/05/17 01:34:18;;;;;;;10.95;5.85;;;9.70;99.90;;;;;;2048383;29;20027;-67
2021/05/17 01:35:20;;;;;;;9.43;5.50;;;9.80;99.90;;;;;;2048440;28;20039;-68
2021/05/17 01:36:21;;;;;;;8.77;5.47;;;9.80;99.90;;;;;;2056514;28;20023;-67
2021/05/17 01:37:23;;;;;;;7.82;5.07;;;9.90;99.90;;;;;;2056876;28;20562;-67
2021/05/17 01:38:25;;;;;;;7.50;4.90;;;9.90;99.90;;;;;;2048259;29;20106;-69
2021/05/17 01:39:27;;;;;;;8.60;5.25;;;9.90;99.90;;;;;;2040637;29;20392;-69
2021/05/17 01:40:30;;;;;;;9.07;5.70;;;10.00;99.90;;;;;;2049004;29;20110;-69
2021/05/17 01:41:34;;;;;;;9.45;5.38;;;10.00;99.90;;;;;;2040376;29;20039;-69
2021/05/17 01:42:40;;;;;;;7.30;4.53;;;10.00;99.90;;;;;;2040882;29;20646;-69
2021/05/17 01:43:48;;;;;;;5.90;4.15;;;10.00;99.50;;;;;;2048917;29;20035;-68
2021/05/17 01:44:50;;;;;;;6.65;4.28;;;10.00;99.30;;;;;;2048895;29;20403;-69
2021/05/17 01:46:00;;;;;;;7.28;5.07;;;10.00;99.30;;;;;;2047909;29;20142;-68
2021/05/17 01:47:01;;;;;;;9.93;6.20;;;10.00;99.40;;;;;;2040220;29;20038;-68
2021/05/17 01:48:03;;;;;;;10.02;5.95;;;10.00;99.30;;;;;;2040240;29;20034;-69
2021/05/17 01:49:04;;;;;;;9.38;5.82;;;10.00;99.50;;;;;;2033063;29;20067;-68
2021/05/17 01:50:10;;;;;;;9.38;5.97;;;10.10;99.40;;;;;;2040989;29;20056;-67
2021/05/17 01:51:16;;;;;;;9.77;6.20;;;10.10;99.40;;;;;;2040238;29;20087;-67
2021/05/17 01:52:18;;;;;;;11.15;7.05;;;10.00;99.30;;;;;;2040301;29;20499;-67
2021/05/17 01:53:19;;;;;;;11.20;7.00;;;10.10;99.50;;;;;;2040408;29;20079;-67
2021/05/17 01:54:21;;;;;;;10.07;6.85;;;10.00;99.40;;;;;;2040289;29;20028;-67
2021/05/17 01:55:28;;;;;;;10.77;7.20;;;10.10;99.50;;;;;;2041075;29;20027;-68
2021/05/17 01:56:29;;;;;;;10.77;6.65;;;10.10;99.60;;;;;;2039889;29;20102;-67
2021/05/17 01:57:42;;;;;;;10.98;6.20;;;10.10;99.70;;;;;;2033981;29;20564;-67
2021/05/17 01:58:46;;;;;;;9.75;6.32;;;10.10;99.80;;;;;;2040570;29;20032;-68
2021/05/17 01:59:47;;;;;;;9.38;5.82;;;10.10;99.90;;;;;;2048257;29;20026;-68
2021/05/17 02:00:48;;;;;;;10.00;5.75;;;10.10;99.80;;;;;;2040364;29;20679;-68
2021/05/17 02:01:49;;;;;;;8.32;5.60;;;10.20;99.80;;;;;;2040319;29;20035;-67
2021/05/17 02:02:51;;;;;;;8.45;5.20;;;10.20;99.90;;;;;;2032335;29;20404;-67
2021/05/17 02:03:57;;;;;;;9.07;5.38;;;10.20;99.90;;;;;;2033892;29;20036;-68
2021/05/17 02:04:58;;;;;;;6.55;4.68;;;10.20;99.90;;;;;;2040183;29;20034;-70
2021/05/17 02:05:59;;;;;;;6.65;4.38;;;10.20;99.80;;;;;;2032022;29;20039;-68
2021/05/17 02:07:00;;;;;;;6.82;4.70;;;10.20;99.70;;;;;;2052520;28;20027;-69
2021/05/17 02:08:03;;;;;;;6.78;4.85;;;10.20;99.70;;;;;;2056700;28;20586;-69
2021/05/17 02:09:04;;;;;;;7.45;5.40;;;10.20;99.60;;;;;;2056556;28;20042;-69
2021/05/17 02:10:06;;;;;;;8.45;5.38;;;10.20;99.60;;;;;;2056636;28;20019;-68
2021/05/17 02:11:10;;;;;;;8.35;5.50;;;10.20;99.70;;;;;;2048100;29;20083;-68
2021/05/17 02:12:13;;;;;;;7.32;4.70;;;10.20;99.70;;;;;;2048139;29;20042;-70
2021/05/17 02:13:27;;;;;;;6.28;4.60;;;10.20;99.50;;;;;;2048207;29;20015;-70
2021/05/17 02:14:30;;;;;;;7.65;4.60;;;10.20;99.60;;;;;;2041892;29;20032;-69
2021/05/17 02:15:32;;;;;;;5.82;4.40;;;10.20;99.70;;;;;;2048461;28;20379;-69
2021/05/17 02:16:35;;;;;;;6.45;4.47;;;10.30;99.80;;;;;;2047549;29;20027;-69
2021/05/17 02:17:36;;;;;;;5.45;4.25;;;10.30;99.70;;;;;;2040064;29;20120;-69
2021/05/17 02:18:38;;;;;;;6.70;4.20;;;10.30;99.70;;;;;;2048025;28;20431;-68
2021/05/17 02:19:40;;;;;;;7.10;5.00;;;10.30;99.90;;;;;;2055932;28;20364;-69
2021/05/17 02:20:42;;;;;;;6.32;4.82;;;10.30;99.90;;;;;;2047974;28;20098;-69
2021/05/17 02:21:42;;;;;;;6.63;4.07;;;10.30;99.90;;;;;;2048159;28;20454;-69
2021/05/17 02:22:44;;;;;;;5.93;4.45;;;10.30;99.90;;;;;;2056669;28;20034;-69
2021/05/17 02:23:56;;;;;;;5.47;3.90;;;10.30;99.90;;;;;;2056612;28;20027;-68
2021/05/17 02:24:57;;;;;;;5.53;4.20;;;10.30;99.90;;;;;;2056595;28;20504;-67
2021/05/17 02:25:59;;;;;;;6.05;4.03;;;10.30;99.90;;;;;;2047002;28;20062;-68
2021/05/17 02:27:06;;;;;;;6.18;4.35;;;10.30;99.90;;;;;;2047510;29;20038;-69
2021/05/17 02:28:13;;;;;;;6.88;4.45;;;10.30;99.80;;;;;;2048018;29;20095;-68
2021/05/17 02:29:15;;;;;;;7.35;4.55;;;10.40;99.90;;;;;;2056773;28;20034;-69
2021/05/17 02:30:17;;;;;;;7.78;5.05;;;10.40;99.80;;;;;;2063789;28;20437;-69
2021/05/17 02:31:18;;;;;;;6.55;4.80;;;10.40;99.90;;;;;;2048080;29;20039;-69
2021/05/17 02:32:24;;;;;;;7.70;4.93;;;10.40;99.80;;;;;;2048077;28;20071;-68
2021/05/17 02:33:27;;;;;;;8.35;5.15;;;10.40;99.80;;;;;;2064004;28;20371;-70
2021/05/17 02:34:28;;;;;;;7.72;4.97;;;10.40;99.90;;;;;;2055965;28;20527;-69
2021/05/17 02:35:29;;;;;;;7.05;4.47;;;10.40;99.90;;;;;;2048114;28;20023;-70
2021/05/17 02:36:30;;;;;;;7.35;4.88;;;10.40;99.90;;;;;;2047224;29;20065;-68
2021/05/17 02:37:33;;;;;;;7.72;4.78;;;10.40;99.90;;;;;;2048135;28;20022;-69
2021/05/17 02:38:35;;;;;;;5.55;4.22;;;10.40;99.90;;;;;;2047910;28;20117;-69
2021/05/17 02:39:37;;;;;;;6.38;4.22;;;10.40;99.90;;;;;;2047748;28;20027;-70
2021/05/17 02:40:38;;;;;;;5.35;3.97;;;10.40;99.90;;;;;;2047854;29;20407;-69
2021/05/17 02:41:41;;;;;;;5.25;3.92;;;10.40;99.90;;;;;;2047731;29;20760;-69
2021/05/17 02:42:45;;;;;;;5.30;3.90;;;10.40;99.90;;;;;;2040411;29;20042;-70
2021/05/17 02:43:46;;;;;;;4.90;3.50;;;10.40;99.90;;;;;;2047908;28;20043;-69
2021/05/17 02:44:50;;;;;;;4.90;3.55;;;10.40;99.90;;;;;;2047443;29;20091;-69
2021/05/17 02:45:52;;;;;;;5.10;3.60;;;10.40;99.90;;;;;;2047585;29;20051;-69
2021/05/17 02:46:57;;;;;;;5.03;3.50;;;10.40;99.90;;;;;;2047768;28;20106;-69
2021/05/17 02:47:59;;;;;;;4.82;3.60;;;10.40;99.90;;;;;;2047927;29;20523;-69
2021/05/17 02:49:00;;;;;;;4.68;3.30;;;10.40;99.90;;;;;;2047801;29;20027;-70
2021/05/17 02:50:02;;;;;;;5.53;3.42;;;10.40;99.90;;;;;;2047835;28;20113;-69
2021/05/17 02:51:03;;;;;;;4.18;3.50;;;10.40;99.90;;;;;;2047806;29;20491;-71
2021/05/17 02:52:04;;;;;;;4.93;3.50;;;10.40;99.90;;;;;;2048437;29;20106;-69
2021/05/17 02:53:46;;;;;;;4.68;3.42;;;10.40;99.90;;;;;;2048422;29;20027;-69
2021/05/17 02:55:04;;;;;;;4.03;3.30;;;10.40;99.80;;;;;;2047743;29;20530;-69
2021/05/17 02:56:12;;;;;;;4.28;3.38;;;10.40;99.90;;;;;;2047672;29;20122;-69
2021/05/17 02:57:33;;;;;;;4.57;3.60;;;10.30;99.90;;;;;;2047742;28;20023;-69
2021/05/17 02:58:37;;;;;;;4.78;3.40;;;10.30;99.90;;;;;;2048019;29;20027;-69
2021/05/17 02:59:47;;;;;;;4.68;3.50;;;10.30;99.90;;;;;;2048401;29;20019;-69
2021/05/17 03:01:04;;;;;;;;;;;10.30;99.90;;;;;;2048161;29;20565;-69
2021/05/17 03:02:10;;;;;;;6.15;4.25;;;10.30;99.90;;;;;;2045668;28;19906;-69
2021/05/17 03:03:14;;;;;;;6.25;4.32;;;10.30;99.90;;;;;;2047761;29;20392;-69
2021/05/17 03:04:50;;;;;;;5.82;4.05;;;10.30;99.90;;;;;;2045005;29;20043;-69
2021/05/17 03:06:06;;;;;;;4.75;4.00;;;10.20;99.90;;;;;;2048288;29;20122;-69
2021/05/17 03:07:11;;;;;;;5.90;4.20;;;10.30;99.90;;;;;;2053849;28;20026;-69
2021/05/17 03:08:15;;;;;;;5.65;3.90;;;10.20;99.90;;;;;;2056421;28;20058;-69
2021/05/17 03:09:16;;;;;;;4.82;3.55;;;10.30;99.90;;;;;;2047513;29;20035;-69
2021/05/17 03:10:22;;;;;;;5.35;3.63;;;10.30;99.90;;;;;;2047741;29;20031;-68
2021/05/17 03:11:24;;;;;;;4.38;3.60;;;10.30;99.90;;;;;;2047718;29;20028;-69
2021/05/17 03:12:28;;;;;;;4.65;3.33;;;10.30;99.90;;;;;;2047837;28;20051;-68
2021/05/17 03:13:29;;;;;;;4.22;3.42;;;10.30;99.90;;;;;;2056228;28;20062;-69
2021/05/17 03:14:33;;;;;;;5.97;3.58;;;10.30;99.90;;;;;;2056273;28;20019;-70
2021/05/17 03:15:40;;;;;;;4.60;3.58;;;10.30;99.90;;;;;;2047623;29;20038;-70
2021/05/17 03:16:45;;;;;;;5.32;3.22;;;10.30;99.90;;;;;;2047453;28;20023;-69
2021/05/17 03:17:46;;;;;;;3.40;3.00;;;10.30;99.90;;;;;;2047588;29;20495;-70
2021/05/17 03:18:51;;;;;;;4.55;3.30;;;10.30;99.80;;;;;;2048180;28;20086;-69
2021/05/17 03:19:52;;;;;;;4.95;3.03;;;10.30;99.40;;;;;;2056199;28;20027;-70
2021/05/17 03:20:53;;;;;;;4.70;2.90;;;10.30;99.50;;;;;;2056186;28;20506;-69
2021/05/17 03:21:58;;;;;;;3.53;2.88;;;10.30;99.40;;;;;;2056215;28;20030;-70
2021/05/17 03:22:59;;;;;;;5.03;2.92;;;10.30;99.60;;;;;;2056196;28;20034;-70
2021/05/17 03:24:00;;;;;;;6.03;2.90;;;10.30;99.40;;;;;;2057469;28;20037;-70
2021/05/17 03:25:04;;;;;;;4.63;2.80;;;10.30;99.60;;;;;;2048416;29;20039;-70
2021/05/17 03:26:06;;;;;;;3.45;2.65;;;10.30;99.50;;;;;;2047851;28;20035;-70
2021/05/17 03:27:30;;;;;;;3.70;2.90;;;10.30;99.30;;;;;;2056152;28;20027;-69
2021/05/17 03:28:30;;;;;;;5.65;2.90;;;10.30;99.00;;;;;;2047560;29;20086;-71
2021/05/17 03:29:31;;;;;;;4.57;2.92;;;10.30;99.20;;;;;;2047650;29;20043;-69
2021/05/17 03:30:32;;;;;;;3.03;2.70;;;10.30;99.20;;;;;;2056082;28;20047;-69
2021/05/17 03:31:32;;;;;;;4.18;3.03;;;10.30;99.10;;;;;;2047483;29;20027;-70
2021/05/17 03:32:33;;;;;;;4.60;3.03;;;10.30;99.20;;;;;;2047690;29;20031;-68
2021/05/17 03:33:34;;;;;;;6.10;3.58;;;10.30;99.20;;;;;;2056546;28;20043;-71
2021/05/17 03:34:34;;;;;;;6.25;4.05;;;10.30;99.20;;;;;;2056380;28;20810;-68
2021/05/17 03:35:35;;;;;;;6.28;3.90;;;10.30;99.10;;;;;;2047801;29;20106;-69
2021/05/17 03:36:38;;;;;;;7.07;4.03;;;10.30;99.10;;;;;;2047278;28;20031;-68
2021/05/17 03:37:40;;;;;;;6.80;4.20;;;10.40;99.20;;;;;;2047907;28;20547;-67
2021/05/17 03:38:40;;;;;;;7.78;4.47;;;10.40;99.20;;;;;;2056211;28;20412;-69
2021/05/17 03:39:46;;;;;;;6.30;3.90;;;10.40;99.30;;;;;;2056490;28;20023;-68
2021/05/17 03:40:47;;;;;;;5.93;3.83;;;10.40;99.20;;;;;;2047951;29;20095;-68
2021/05/17 03:41:47;;;;;;;5.22;3.80;;;10.40;99.60;;;;;;2048065;29;20391;-67
2021/05/17 03:42:48;;;;;;;5.65;3.50;;;10.40;99.30;;;;;;2056471;28;20030;-71
2021/05/17 03:43:49;;;;;;;5.10;2.97;;;10.40;99.30;;;;;;2048089;29;20035;-68
2021/05/17 03:44:49;;;;;;;4.65;3.03;;;10.40;99.10;;;;;;2048315;29;20035;-68
2021/05/17 03:45:50;;;;;;;5.32;3.20;;;10.40;99.10;;;;;;2056818;28;20058;-71
2021/05/17 03:46:51;;;;;;;6.18;3.75;;;10.40;99.20;;;;;;2047282;29;20082;-70
2021/05/17 03:47:52;;;;;;;5.10;3.28;;;10.40;99.10;;;;;;2047596;29;20039;-70
2021/05/17 03:48:53;;;;;;;5.68;3.60;;;10.40;99.20;;;;;;2047484;29;20031;-69
2021/05/17 03:49:53;;;;;;;6.20;3.50;;;10.40;99.00;;;;;;2047608;29;20103;-69
2021/05/17 03:50:54;;;;;;;6.90;3.60;;;10.40;99.00;;;;;;2047456;29;20082;-69
2021/05/17 03:51:54;;;;;;;7.50;3.97;;;10.40;99.10;;;;;;2047623;29;20019;-68
2021/05/17 03:52:55;;;;;;;6.55;3.90;;;10.40;99.10;;;;;;2056150;28;20038;-69
2021/05/17 03:53:55;;;;;;;8.88;4.10;;;10.40;99.10;;;;;;2056024;28;20027;-70
2021/05/17 03:54:56;;;;;;;7.88;4.10;;;10.50;99.20;;;;;;2056069;28;20034;-70
2021/05/17 03:55:57;;;;;;;6.82;3.75;;;10.50;99.20;;;;;;2047081;29;20090;-68
2021/05/17 03:56:58;;;;;;;4.78;3.53;;;10.50;99.20;;;;;;2047438;29;20027;-68
2021/05/17 03:58:00;;;;;;;6.13;3.85;;;10.50;99.30;;;;;;2047396;29;20031;-69
2021/05/17 03:59:00;;;;;;;6.30;3.47;;;10.60;99.40;;;;;;2051443;28;20026;-69
2021/05/17 04:00:08;;;;;;;4.47;3.30;;;10.60;99.20;;;;;;2055162;28;20018;-69
2021/05/17 04:01:16;;;;;;;6.72;3.40;;;10.60;99.20;;;;;;2043406;29;20020;-69
2021/05/17 04:02:19;;;;;;;3.83;3.00;;;10.60;99.20;;;;;;2054303;28;20026;-69
2021/05/17 04:03:21;;;;;;;5.10;3.38;;;10.60;99.10;;;;;;2055967;28;20023;-69
2021/05/17 04:04:23;;;;;;;3.85;3.10;;;10.60;99.20;;;;;;2055930;28;20018;-69
2021/05/17 04:06:14;;;;;;;4.00;3.15;;;10.60;99.10;;;;;;2055412;28;20027;-69
2021/05/17 04:14:14;;;;;;;5.07;3.10;;;10.60;99.30;;;;;;2055954;28;20054;-69
2021/05/17 04:15:16;;;;;;;4.68;2.92;;;10.60;99.30;;;;;;2055968;28;20035;-69
2021/05/17 04:16:17;;;;;;;4.05;3.28;;;10.60;99.30;;;;;;2055605;28;20026;-69
2021/05/17 04:17:17;;;;;;;4.38;3.30;;;10.70;99.40;;;;;;2047286;28;20023;-68
2021/05/17 04:18:20;;;;;;;5.40;3.25;;;10.70;99.70;;;;;;2047336;29;20045;-69
2021/05/17 04:19:25;;;;;;;7.20;4.03;;;10.70;99.50;;;;;;2055880;28;20173;-69
2021/05/17 04:20:26;;;;;;;5.03;3.58;;;10.70;99.20;;;;;;2055952;28;20491;-69
2021/05/17 04:21:27;;;;;;;6.68;3.70;;;10.70;99.10;;;;;;2047263;29;20096;-69
2021/05/17 04:22:27;;;;;;;4.40;3.58;;;10.70;99.00;;;;;;2047370;29;20023;-69
2021/05/17 04:23:29;;;;;;;4.03;3.35;;;10.70;99.30;;;;;;2055893;28;20030;-69
2021/05/17 04:24:29;;;;;;;4.15;3.67;;;10.70;99.30;;;;;;2055864;28;20093;-69
2021/05/17 04:25:30;;;;;;;5.68;4.38;;;10.70;99.40;;;;;;2055837;28;20132;-68
2021/05/17 04:26:31;;;;;;;5.25;4.10;;;10.80;99.50;;;;;;2055618;28;20761;-69
2021/05/17 04:27:32;;;;;;;6.03;3.90;;;10.80;99.20;;;;;;2055936;28;20019;-68
2021/05/17 04:28:33;;;;;;;4.90;3.60;;;10.80;99.30;;;;;;2055848;28;20489;-68
2021/05/17 04:29:34;;;;;;;4.75;3.50;;;10.80;99.30;;;;;;2055842;28;20107;-69
2021/05/17 04:30:35;;;;;;;3.90;3.38;;;10.80;99.40;;;;;;2055815;28;20061;-69
2021/05/17 04:31:35;;;;;;;4.03;3.55;;;10.80;99.30;;;;;;2055877;28;20675;-68
2021/05/17 04:32:36;;;;;;;4.70;3.28;;;10.90;99.40;;;;;;2055820;28;20033;-68
2021/05/17 04:33:36;;;;;;;3.90;3.40;;;10.90;99.20;;;;;;2055940;28;20027;-69
2021/05/17 04:34:37;;;;;;;4.72;3.30;;;10.80;99.10;;;;;;2055941;28;20105;-69
2021/05/17 04:35:38;;;;;;;4.30;3.35;;;10.90;99.10;;;;;;2055686;28;20055;-68
2021/05/17 04:36:38;;;;;;;4.57;3.35;;;10.90;99.10;;;;;;2055222;28;20450;-68
2021/05/17 04:37:39;;;;;;;4.53;3.35;;;10.80;98.90;;;;;;2053343;28;20027;-68
2021/05/17 04:38:39;;;;;;;4.57;3.28;;;10.80;98.70;;;;;;2047272;29;20431;-69
2021/05/17 04:39:40;;;;;;;3.53;3.10;;;10.80;98.90;;;;;;2055989;28;20034;-68
2021/05/17 04:40:43;;;;;;;4.07;2.88;;;10.80;98.90;;;;;;2056016;28;20031;-68
2021/05/17 04:41:44;;;;;;;3.35;3.05;;;10.90;98.90;;;;;;2056185;28;20386;-69
2021/05/17 04:42:44;;;;;;;4.03;2.90;;;10.90;99.00;;;;;;2056213;28;20066;-69
2021/05/17 04:43:45;;;;;;;3.67;2.90;;;10.90;98.90;;;;;;2056203;28;20038;-69
2021/05/17 04:44:46;;;;;;;4.63;3.20;;;10.90;98.90;;;;;;2056108;28;20031;-69
2021/05/17 04:45:46;;;;;;;6.07;3.90;;;11.00;98.90;;;;;;2056547;28;20494;-69
2021/05/17 04:46:47;;;;;;;5.35;3.63;;;11.00;99.00;;;;;;2055597;28;20042;-68
2021/05/17 04:47:47;;;;;;;3.88;3.47;;;10.90;98.70;;;;;;2056234;28;20034;-69
2021/05/17 04:48:51;;;;;;;4.00;3.40;;;11.00;98.80;;;;;;2056436;28;20096;-69
2021/05/17 04:49:52;;;;;;;4.78;3.30;;;11.00;98.60;;;;;;2057281;28;20114;-69
2021/05/17 04:50:52;;;;;;;4.30;3.40;;;11.00;98.90;;;;;;2057733;28;20049;-67
2021/05/17 04:51:53;;;;;;;4.45;3.25;;;11.00;98.80;;;;;;2057420;28;20034;-69
2021/05/17 04:52:54;;;;;;;4.45;3.15;;;11.00;98.80;;;;;;2057508;28;20110;-69
2021/05/17 04:53:55;;;;;;;3.95;3.25;;;11.00;98.70;;;;;;2057380;28;20442;-69
2021/05/17 04:54:55;;;;;;;4.22;3.55;;;11.00;98.80;;;;;;2057234;28;20037;-69
2021/05/17 04:55:56;;;;;;;4.90;3.33;;;11.00;98.70;;;;;;2056736;28;20418;-69
2021/05/17 04:56:56;;;;;;;3.78;3.38;;;11.10;98.70;;;;;;2057233;28;20026;-69
2021/05/17 04:57:57;;;;;;;4.10;3.20;;;11.10;98.70;;;;;;2057323;28;20035;-70
2021/05/17 04:58:57;;;;;;;4.30;3.35;;;11.10;98.70;;;;;;2057365;28;20062;-67
2021/05/17 04:59:58;;;;;;;4.70;3.38;;;11.10;98.70;;;;;;2057514;28;20023;-67
2021/05/17 05:00:59;;;;;;;3.40;3.10;;;11.20;98.70;;;;;;2048862;29;20129;-68
2021/05/17 05:01:59;;;;;;;4.22;3.63;;;11.20;98.60;;;;;;2048531;29;20526;-68
2021/05/17 05:03:00;;;;;;;4.03;3.38;;;11.30;98.50;;;;;;2057215;28;20034;-68
2021/05/17 05:04:01;;;;;;;4.45;3.42;;;11.40;98.50;;;;;;2057233;28;20034;-68
2021/05/17 05:05:02;;;;;;;5.47;3.65;;;11.40;98.30;;;;;;2057267;28;20034;-69
2021/05/17 05:06:02;;;;;;;5.45;3.63;;;11.40;98.20;;;;;;2056742;28;20043;-68
2021/05/17 05:07:03;;;;;;;4.90;3.38;;;11.50;97.90;;;;;;2056912;28;20023;-68
2021/05/17 05:08:04;;;;;;;4.90;3.60;;;11.60;97.80;;;;;;2048445;29;20455;-68
2021/05/17 05:09:05;;;;;;;5.00;3.70;;;11.60;97.60;;;;;;2048390;29;20039;-69
2021/05/17 05:10:06;;;;;;;6.78;3.58;;;11.70;97.50;;;;;;2048485;28;20110;-69
2021/05/17 05:11:10;;;;;;;4.75;3.40;;;11.80;97.40;;;;;;2048422;29;20027;-69
2021/05/17 05:12:11;;;;;;;4.32;3.70;;;11.80;97.20;;;;;;2048466;29;20617;-69
2021/05/17 05:13:12;;;;;;;4.95;3.70;;;11.80;97.00;;;;;;2048523;29;20070;-68
2021/05/17 05:14:12;;;;;;;5.00;3.58;;;11.90;97.00;;;;;;2048775;29;20023;-69
2021/05/17 05:15:13;;;;;;;4.82;3.50;;;12.20;97.20;;;;;;2057178;28;20030;-69
2021/05/17 05:16:14;;;;;;;4.80;3.50;;;12.60;97.20;;;;;;2056867;28;20038;-71
2021/05/17 05:17:14;;;;;;;7.32;3.83;;;13.10;95.80;;;;;;2057116;28;20063;-68
2021/05/17 05:18:15;;;;;;;5.38;3.90;;;13.70;94.10;;;;;;2057227;28;20034;-70
2021/05/17 05:19:15;;;;;;;4.35;3.55;;;14.20;92.00;;;;;;2057283;28;20470;-68
2021/05/17 05:20:19;;;;;;;4.25;3.40;;;14.80;90.10;;;;;;2057168;28;20121;-69
2021/05/17 05:21:20;;;;;;;4.10;2.90;;;15.40;87.40;;;;;;2057191;28;20078;-69
2021/05/17 05:22:20;;;;;;;4.30;2.83;;;15.90;84.30;;;;;;2057055;28;20022;-68
2021/05/17 05:23:21;;;;;;;4.15;2.85;;;16.40;81.40;;;;;;2056987;28;20364;-69
2021/05/17 05:24:22;;;;;;;3.88;2.67;;;16.70;78.50;;;;;;2048445;29;20512;-69
2021/05/17 05:25:28;;;;;;;3.78;3.00;;;17.10;76.20;;;;;;2048327;29;20019;-68
2021/05/17 05:26:43;;;;;;;4.95;3.08;;;17.40;74.40;;;;;;2040725;29;20124;-68
2021/05/17 05:27:50;;;;;;;3.97;3.03;;;17.80;73.10;;;;;;2049075;29;20046;-69
2021/05/17 05:29:10;;;;;;;5.80;3.13;;;18.00;70.20;;;;;;2048430;29;20450;-69
2021/05/17 05:30:19;;;;;;;5.65;3.60;;;18.30;69.90;;;;;;2043150;29;20058;-68
2021/05/17 05:31:24;;;;;;;5.57;3.10;;;18.70;69.60;;;;;;2049542;28;20078;-68
2021/05/17 05:32:30;;;;;;;5.97;3.20;;;19.10;67.90;;;;;;2056948;28;20019;-67
2021/05/17 05:33:30;;;;;;;4.40;2.90;;;19.40;66.10;;;;;;2048211;29;20495;-67
2021/05/17 05:34:31;;;;;;;3.80;2.70;;;19.60;65.30;;;;;;2048245;29;20023;-68
2021/05/17 05:35:31;;;;;;;3.65;2.80;;;19.80;64.10;;;;;;2048313;29;20027;-68